sensor_id;sensor_type;location;lat;lon;timestamp;pressure;altitude;pressure_sealevel;temperature;humidity
71504;BME280;59323;50.874;7.028;2023-05-03T00:00:47;102375.38;;;5.73;83.01
71504;BME280;59323;50.874;7.028;2023-05-03T00:03:13;102381.06;;;5.71;83.15
71504;BME280;59323;50.874;7.028;2023-05-03T00:05:38;102376.25;;;5.68;83.23
71504;BME280;59323;50.874;7.028;2023-05-03T00:08:03;102377.94;;;5.64;83.24
71504;BME280;59323;50.874;7.028;2023-05-03T00:10:29;102380.13;;;5.62;83.54
71504;BME280;59323;50.874;7.028;2023-05-03T00:12:55;102381.78;;;5.58;83.02
71504;BME280;59323;50.874;7.028;2023-05-03T00:15:21;102374.28;;;5.55;83.36
71504;BME280;59323;50.874;7.028;2023-05-03T00:17:46;102374.56;;;5.54;83.34
71504;BME280;59323;50.874;7.028;2023-05-03T00:20:12;102377.06;;;5.50;83.54
71504;BME280;59323;50.874;7.028;2023-05-03T00:22:37;102373.03;;;5.48;83.69
71504;BME280;59323;50.874;7.028;2023-05-03T00:25:03;102373.09;;;5.43;83.63
71504;BME280;59323;50.874;7.028;2023-05-03T00:27:28;102368.00;;;5.41;84.12
71504;BME280;59323;50.874;7.028;2023-05-03T00:29:54;102368.28;;;5.39;83.90
71504;BME280;59323;50.874;7.028;2023-05-03T00:32:20;102369.66;;;5.37;83.64
71504;BME280;59323;50.874;7.028;2023-05-03T00:34:52;102363.25;;;5.33;83.81
71504;BME280;59323;50.874;7.028;2023-05-03T00:37:18;102368.41;;;5.29;84.26
71504;BME280;59323;50.874;7.028;2023-05-03T00:39:43;102364.41;;;5.27;84.28
71504;BME280;59323;50.874;7.028;2023-05-03T00:42:08;102361.50;;;5.23;84.31
71504;BME280;59323;50.874;7.028;2023-05-03T00:44:33;102370.16;;;5.20;84.54
71504;BME280;59323;50.874;7.028;2023-05-03T00:46:59;102366.69;;;5.15;84.76
71504;BME280;59323;50.874;7.028;2023-05-03T00:49:25;102372.06;;;5.15;84.70
71504;BME280;59323;50.874;7.028;2023-05-03T00:51:52;102367.53;;;5.10;84.08
71504;BME280;59323;50.874;7.028;2023-05-03T00:54:17;102377.00;;;5.07;84.42
71504;BME280;59323;50.874;7.028;2023-05-03T00:56:43;102375.97;;;5.03;84.83
71504;BME280;59323;50.874;7.028;2023-05-03T00:59:10;102377.56;;;5.04;84.90
71504;BME280;59323;50.874;7.028;2023-05-03T01:01:35;102368.47;;;5.00;84.71
71504;BME280;59323;50.874;7.028;2023-05-03T01:04:02;102369.84;;;4.98;84.89
71504;BME280;59323;50.874;7.028;2023-05-03T01:17:50;102361.97;;;4.77;85.26
71504;BME280;59323;50.874;7.028;2023-05-03T01:20:22;102357.97;;;4.75;84.86
71504;BME280;59323;50.874;7.028;2023-05-03T01:25:24;102362.31;;;4.71;85.23
71504;BME280;59323;50.874;7.028;2023-05-03T01:27:51;102362.88;;;4.68;85.64
71504;BME280;59323;50.874;7.028;2023-05-03T01:30:16;102364.25;;;4.65;85.95
71504;BME280;59323;50.874;7.028;2023-05-03T01:35:25;102370.19;;;4.62;85.92
71504;BME280;59323;50.874;7.028;2023-05-03T01:37:54;102365.66;;;4.58;85.86
71504;BME280;59323;50.874;7.028;2023-05-03T01:40:21;102372.66;;;4.54;86.06
71504;BME280;59323;50.874;7.028;2023-05-03T01:42:48;102376.16;;;4.54;85.64
71504;BME280;59323;50.874;7.028;2023-05-03T01:45:14;102370.25;;;4.52;85.63
71504;BME280;59323;50.874;7.028;2023-05-03T01:47:40;102363.31;;;4.46;86.52
71504;BME280;59323;50.874;7.028;2023-05-03T01:50:05;102369.25;;;4.43;86.81
71504;BME280;59323;50.874;7.028;2023-05-03T01:52:31;102370.06;;;4.43;86.57
71504;BME280;59323;50.874;7.028;2023-05-03T01:54:56;102377.63;;;4.41;86.65
71504;BME280;59323;50.874;7.028;2023-05-03T01:57:21;102380.88;;;4.38;87.09
71504;BME280;59323;50.874;7.028;2023-05-03T01:59:47;102379.56;;;4.36;86.79
71504;BME280;59323;50.874;7.028;2023-05-03T02:02:12;102375.25;;;4.35;87.16
71504;BME280;59323;50.874;7.028;2023-05-03T02:04:38;102383.09;;;4.31;86.74
71504;BME280;59323;50.874;7.028;2023-05-03T02:07:03;102383.66;;;4.28;87.20
71504;BME280;59323;50.874;7.028;2023-05-03T02:09:28;102380.72;;;4.25;87.68
71504;BME280;59323;50.874;7.028;2023-05-03T02:11:54;102386.91;;;4.25;87.37
71504;BME280;59323;50.874;7.028;2023-05-03T02:14:19;102389.06;;;4.23;87.02
71504;BME280;59323;50.874;7.028;2023-05-03T02:16:44;102392.84;;;4.22;87.35
71504;BME280;59323;50.874;7.028;2023-05-03T02:19:10;102389.63;;;4.20;87.46
71504;BME280;59323;50.874;7.028;2023-05-03T02:21:36;102393.97;;;4.16;87.93
71504;BME280;59323;50.874;7.028;2023-05-03T02:24:01;102393.44;;;4.14;87.79
71504;BME280;59323;50.874;7.028;2023-05-03T02:26:27;102398.81;;;4.14;87.28
71504;BME280;59323;50.874;7.028;2023-05-03T02:28:53;102402.06;;;4.11;87.41
71504;BME280;59323;50.874;7.028;2023-05-03T02:31:20;102403.16;;;4.10;87.68
71504;BME280;59323;50.874;7.028;2023-05-03T02:33:45;102403.44;;;4.08;87.77
71504;BME280;59323;50.874;7.028;2023-05-03T02:36:10;102412.88;;;4.06;88.20
71504;BME280;59323;50.874;7.028;2023-05-03T02:38:37;102417.72;;;4.04;87.79
71504;BME280;59323;50.874;7.028;2023-05-03T02:41:02;102420.97;;;4.01;87.89
71504;BME280;59323;50.874;7.028;2023-05-03T02:43:28;102415.88;;;3.99;88.23
71504;BME280;59323;50.874;7.028;2023-05-03T02:45:53;102418.03;;;3.97;88.46
71504;BME280;59323;50.874;7.028;2023-05-03T02:48:18;102418.31;;;3.96;88.11
71504;BME280;59323;50.874;7.028;2023-05-03T02:50:43;102415.09;;;3.94;88.24
71504;BME280;59323;50.874;7.028;2023-05-03T02:53:09;102416.69;;;3.90;88.44
71504;BME280;59323;50.874;7.028;2023-05-03T02:55:34;102409.19;;;3.87;88.56
71504;BME280;59323;50.874;7.028;2023-05-03T02:58:00;102410.28;;;3.86;88.46
71504;BME280;59323;50.874;7.028;2023-05-03T03:00:25;102409.75;;;3.83;88.42
71504;BME280;59323;50.874;7.028;2023-05-03T03:02:51;102404.66;;;3.82;88.65
71504;BME280;59323;50.874;7.028;2023-05-03T03:05:16;102402.78;;;3.77;88.51
71504;BME280;59323;50.874;7.028;2023-05-03T03:07:42;102394.50;;;3.69;88.50
71504;BME280;59323;50.874;7.028;2023-05-03T03:10:08;102407.91;;;3.74;88.61
71504;BME280;59323;50.874;7.028;2023-05-03T03:12:36;102388.84;;;3.70;89.00
71504;BME280;59323;50.874;7.028;2023-05-03T03:15:27;102395.03;;;3.71;88.90
71504;BME280;59323;50.874;7.028;2023-05-03T03:17:52;102394.78;;;3.67;88.97
71504;BME280;59323;50.874;7.028;2023-05-03T03:20:21;102398.03;;;3.64;88.82
71504;BME280;59323;50.874;7.028;2023-05-03T03:22:47;102394.81;;;3.62;89.01
71504;BME280;59323;50.874;7.028;2023-05-03T03:25:12;102395.88;;;3.61;88.66
71504;BME280;59323;50.874;7.028;2023-05-03T03:27:37;102386.50;;;3.59;88.99
71504;BME280;59323;50.874;7.028;2023-05-03T03:30:03;102392.13;;;3.57;89.03
71504;BME280;59323;50.874;7.028;2023-05-03T03:32:29;102380.88;;;3.50;89.07
71504;BME280;59323;50.874;7.028;2023-05-03T03:34:54;102391.09;;;3.53;89.52
71504;BME280;59323;50.874;7.028;2023-05-03T03:37:20;102392.44;;;3.50;89.12
71504;BME280;59323;50.874;7.028;2023-05-03T03:39:47;102386.53;;;3.48;89.16
71504;BME280;59323;50.874;7.028;2023-05-03T03:42:15;102380.91;;;3.45;89.57
71504;BME280;59323;50.874;7.028;2023-05-03T03:44:40;102379.31;;;3.39;89.01
71504;BME280;59323;50.874;7.028;2023-05-03T03:47:05;102388.44;;;3.43;89.74
71504;BME280;59323;50.874;7.028;2023-05-03T03:49:31;102387.38;;;3.39;89.55
71504;BME280;59323;50.874;7.028;2023-05-03T03:51:56;102383.09;;;3.38;89.93
71504;BME280;59323;50.874;7.028;2023-05-03T03:54:22;102379.34;;;3.34;89.57
71504;BME280;59323;50.874;7.028;2023-05-03T03:56:47;102376.13;;;3.32;90.04
71504;BME280;59323;50.874;7.028;2023-05-03T03:59:12;102378.00;;;3.31;89.70
71504;BME280;59323;50.874;7.028;2023-05-03T04:01:38;102366.47;;;3.31;89.85
71504;BME280;59323;50.874;7.028;2023-05-03T04:04:03;102375.59;;;3.30;89.75
71504;BME280;59323;50.874;7.028;2023-05-03T04:06:28;102374.28;;;3.27;89.21
71504;BME280;59323;50.874;7.028;2023-05-03T04:08:54;102375.59;;;3.25;89.63
71504;BME280;59323;50.874;7.028;2023-05-03T04:11:19;102372.38;;;3.23;89.87
71504;BME280;59323;50.874;7.028;2023-05-03T04:13:47;102372.91;;;3.25;90.37
71504;BME280;59323;50.874;7.028;2023-05-03T04:16:13;102372.38;;;3.23;90.15
71504;BME280;59323;50.874;7.028;2023-05-03T04:18:39;102377.75;;;3.23;90.13
71504;BME280;59323;50.874;7.028;2023-05-03T04:21:05;102375.88;;;3.23;90.54
71504;BME280;59323;50.874;7.028;2023-05-03T04:23:30;102369.41;;;3.24;90.55
71504;BME280;59323;50.874;7.028;2023-05-03T04:25:55;102368.88;;;3.22;90.31
71504;BME280;59323;50.874;7.028;2023-05-03T04:28:22;102351.97;;;3.22;90.58
71504;BME280;59323;50.874;7.028;2023-05-03T04:30:49;102355.19;;;3.24;90.57
71504;BME280;59323;50.874;7.028;2023-05-03T04:33:14;102355.97;;;3.24;90.73
71504;BME280;59323;50.874;7.028;2023-05-03T04:35:40;102352.25;;;3.25;90.78
71504;BME280;59323;50.874;7.028;2023-05-03T04:38:06;102346.03;;;3.25;90.99
71504;BME280;59323;50.874;7.028;2023-05-03T04:40:31;102351.97;;;3.27;90.97
71504;BME280;59323;50.874;7.028;2023-05-03T04:42:57;102355.47;;;3.27;90.89
71504;BME280;59323;50.874;7.028;2023-05-03T04:45:22;102372.91;;;3.35;91.53
71504;BME280;59323;50.874;7.028;2023-05-03T04:47:48;102371.53;;;3.37;91.70
71504;BME280;59323;50.874;7.028;2023-05-03T04:50:14;102379.06;;;3.40;91.88
71504;BME280;59323;50.874;7.028;2023-05-03T04:52:39;102385.47;;;3.44;91.87
71504;BME280;59323;50.874;7.028;2023-05-03T04:55:05;102387.91;;;3.46;91.63
71504;BME280;59323;50.874;7.028;2023-05-03T04:57:32;102399.44;;;3.52;91.36
71504;BME280;59323;50.874;7.028;2023-05-03T04:59:57;102400.75;;;3.54;91.37
71504;BME280;59323;50.874;7.028;2023-05-03T05:02:22;102405.84;;;3.61;91.10
71504;BME280;59323;50.874;7.028;2023-05-03T05:04:48;102409.28;;;3.71;90.71
71504;BME280;59323;50.874;7.028;2023-05-03T05:07:13;102400.63;;;3.79;90.40
71504;BME280;59323;50.874;7.028;2023-05-03T05:09:39;102410.78;;;3.93;89.69
71504;BME280;59323;50.874;7.028;2023-05-03T05:12:05;102416.09;;;4.08;88.70
71504;BME280;59323;50.874;7.028;2023-05-03T05:14:31;102415.41;;;4.26;88.96
71504;BME280;59323;50.874;7.028;2023-05-03T05:16:57;102411.47;;;4.47;87.87
71504;BME280;59323;50.874;7.028;2023-05-03T05:19:22;102403.03;;;4.64;87.22
71504;BME280;59323;50.874;7.028;2023-05-03T05:21:47;102400.88;;;4.90;86.54
71504;BME280;59323;50.874;7.028;2023-05-03T05:24:13;102410.66;;;5.10;84.68
71504;BME280;59323;50.874;7.028;2023-05-03T05:26:38;102413.38;;;5.34;84.46
71504;BME280;59323;50.874;7.028;2023-05-03T05:29:04;102413.41;;;5.53;83.74
71504;BME280;59323;50.874;7.028;2023-05-03T05:31:30;102417.69;;;5.78;82.23
71504;BME280;59323;50.874;7.028;2023-05-03T05:33:55;102421.47;;;6.00;80.97
71504;BME280;59323;50.874;7.028;2023-05-03T05:36:20;102422.84;;;6.17;80.73
71504;BME280;59323;50.874;7.028;2023-05-03T05:38:46;102426.13;;;6.32;79.72
71504;BME280;59323;50.874;7.028;2023-05-03T05:41:11;102437.34;;;6.58;79.49
71504;BME280;59323;50.874;7.028;2023-05-03T05:43:36;102442.19;;;6.75;77.84
71504;BME280;59323;50.874;7.028;2023-05-03T05:46:02;102441.84;;;6.95;77.63
71504;BME280;59323;50.874;7.028;2023-05-03T05:48:27;102444.75;;;7.13;76.60
71504;BME280;59323;50.874;7.028;2023-05-03T05:50:53;102445.00;;;7.30;75.73
71504;BME280;59323;50.874;7.028;2023-05-03T05:53:18;102449.69;;;7.24;73.69
71504;BME280;59323;50.874;7.028;2023-05-03T05:55:43;102453.00;;;7.35;74.96
71504;BME280;59323;50.874;7.028;2023-05-03T05:58:09;102440.91;;;7.46;73.47
71504;BME280;59323;50.874;7.028;2023-05-03T06:00:36;102447.38;;;7.73;73.59
71504;BME280;59323;50.874;7.028;2023-05-03T06:03:02;102444.88;;;7.90;72.64
71504;BME280;59323;50.874;7.028;2023-05-03T06:05:27;102455.44;;;8.14;72.59
71504;BME280;59323;50.874;7.028;2023-05-03T06:07:53;102449.88;;;8.33;71.38
71504;BME280;59323;50.874;7.028;2023-05-03T06:10:18;102458.38;;;8.53;70.38
71504;BME280;59323;50.874;7.028;2023-05-03T06:12:43;102450.91;;;8.59;70.53
71504;BME280;59323;50.874;7.028;2023-05-03T06:15:09;102445.06;;;8.66;68.56
71504;BME280;59323;50.874;7.028;2023-05-03T06:17:34;102455.75;;;8.93;70.83
71504;BME280;59323;50.874;7.028;2023-05-03T06:20:00;102455.75;;;9.24;70.86
71504;BME280;59323;50.874;7.028;2023-05-03T06:22:25;102461.63;;;9.57;70.65
71504;BME280;59323;50.874;7.028;2023-05-03T06:24:51;102463.16;;;9.89;69.59
71504;BME280;59323;50.874;7.028;2023-05-03T06:27:17;102465.31;;;10.27;70.20
71504;BME280;59323;50.874;7.028;2023-05-03T06:29:42;102463.72;;;10.60;67.89
71504;BME280;59323;50.874;7.028;2023-05-03T06:32:09;102463.72;;;10.60;64.48
71504;BME280;59323;50.874;7.028;2023-05-03T06:34:34;102461.91;;;10.82;63.49
71504;BME280;59323;50.874;7.028;2023-05-03T06:36:59;102467.63;;;11.06;62.02
71504;BME280;59323;50.874;7.028;2023-05-03T06:39:25;102467.88;;;11.30;61.57
71504;BME280;59323;50.874;7.028;2023-05-03T06:41:52;102461.88;;;11.07;59.35
71504;BME280;59323;50.874;7.028;2023-05-03T06:44:17;102469.00;;;11.29;60.72
71504;BME280;59323;50.874;7.028;2023-05-03T06:46:43;102474.78;;;11.57;61.18
71504;BME280;59323;50.874;7.028;2023-05-03T06:49:08;102470.75;;;11.63;59.91
71504;BME280;59323;50.874;7.028;2023-05-03T06:51:33;102468.06;;;11.93;59.04
71504;BME280;59323;50.874;7.028;2023-05-03T06:53:59;102460.09;;;12.09;57.49
71504;BME280;59323;50.874;7.028;2023-05-03T06:56:33;102469.16;;;12.42;55.59
71504;BME280;59323;50.874;7.028;2023-05-03T06:58:59;102473.47;;;12.43;56.63
71504;BME280;59323;50.874;7.028;2023-05-03T07:01:25;102478.25;;;12.46;56.04
71504;BME280;59323;50.874;7.028;2023-05-03T07:03:51;102473.13;;;12.45;54.86
71504;BME280;59323;50.874;7.028;2023-05-03T07:06:16;102462.78;;;12.38;54.22
71504;BME280;59323;50.874;7.028;2023-05-03T07:08:43;102464.53;;;12.13;53.70
71504;BME280;59323;50.874;7.028;2023-05-03T07:11:08;102457.56;;;12.24;54.18
71504;BME280;59323;50.874;7.028;2023-05-03T07:13:34;102451.66;;;12.22;54.07
71504;BME280;59323;50.874;7.028;2023-05-03T07:16:00;102453.13;;;12.41;54.91
71504;BME280;59323;50.874;7.028;2023-05-03T07:18:25;102451.19;;;12.41;53.61
71504;BME280;59323;50.874;7.028;2023-05-03T07:20:51;102465.88;;;12.49;52.97
71504;BME280;59323;50.874;7.028;2023-05-03T07:23:16;102454.69;;;12.62;53.90
71504;BME280;59323;50.874;7.028;2023-05-03T07:25:42;102445.50;;;12.67;52.54
71504;BME280;59323;50.874;7.028;2023-05-03T07:28:07;102453.41;;;12.93;52.38
71504;BME280;59323;50.874;7.028;2023-05-03T07:30:33;102456.19;;;13.05;51.75
71504;BME280;59323;50.874;7.028;2023-05-03T07:32:58;102447.88;;;13.14;50.40
71504;BME280;59323;50.874;7.028;2023-05-03T07:35:24;102443.94;;;13.36;50.73
71504;BME280;59323;50.874;7.028;2023-05-03T07:37:51;102444.84;;;13.40;50.08
71504;BME280;59323;50.874;7.028;2023-05-03T07:40:16;102450.09;;;13.57;50.15
71504;BME280;59323;50.874;7.028;2023-05-03T07:42:42;102441.91;;;13.69;49.36
71504;BME280;59323;50.874;7.028;2023-05-03T07:45:08;102436.91;;;13.71;49.20
71504;BME280;59323;50.874;7.028;2023-05-03T07:47:33;102431.53;;;13.75;49.92
71504;BME280;59323;50.874;7.028;2023-05-03T07:50:02;102437.53;;;13.92;48.67
71504;BME280;59323;50.874;7.028;2023-05-03T07:52:29;102429.00;;;13.94;47.14
71504;BME280;59323;50.874;7.028;2023-05-03T07:54:55;102428.00;;;14.14;47.01
71504;BME280;59323;50.874;7.028;2023-05-03T07:57:20;102421.31;;;14.12;47.96
71504;BME280;59323;50.874;7.028;2023-05-03T07:59:47;102416.69;;;14.28;46.04
71504;BME280;59323;50.874;7.028;2023-05-03T08:02:13;102421.69;;;14.38;45.34
71504;BME280;59323;50.874;7.028;2023-05-03T08:04:38;102412.84;;;14.17;45.15
71504;BME280;59323;50.874;7.028;2023-05-03T08:07:04;102413.25;;;14.43;46.18
71504;BME280;59323;50.874;7.028;2023-05-03T08:09:29;102409.56;;;14.51;45.94
71504;BME280;59323;50.874;7.028;2023-05-03T08:11:55;102401.25;;;14.48;44.99
71504;BME280;59323;50.874;7.028;2023-05-03T08:14:21;102400.06;;;14.33;44.45
71504;BME280;59323;50.874;7.028;2023-05-03T08:16:47;102402.00;;;14.61;46.49
71504;BME280;59323;50.874;7.028;2023-05-03T08:19:12;102398.91;;;14.78;42.92
71504;BME280;59323;50.874;7.028;2023-05-03T08:21:38;102404.88;;;14.96;44.24
71504;BME280;59323;50.874;7.028;2023-05-03T08:24:04;102401.25;;;15.07;43.71
71504;BME280;59323;50.874;7.028;2023-05-03T08:26:31;102414.03;;;15.19;43.09
71504;BME280;59323;50.874;7.028;2023-05-03T08:28:57;102407.84;;;15.22;43.07
71504;BME280;59323;50.874;7.028;2023-05-03T08:31:22;102414.03;;;15.19;43.12
71504;BME280;59323;50.874;7.028;2023-05-03T08:33:48;102416.16;;;15.26;41.42
71504;BME280;59323;50.874;7.028;2023-05-03T08:36:13;102407.91;;;15.41;40.45
71504;BME280;59323;50.874;7.028;2023-05-03T08:38:38;102398.00;;;15.52;42.68
71504;BME280;59323;50.874;7.028;2023-05-03T08:41:16;102402.28;;;15.34;40.86
71504;BME280;59323;50.874;7.028;2023-05-03T08:43:43;102393.53;;;15.29;41.82
71504;BME280;59323;50.874;7.028;2023-05-03T08:46:10;102397.50;;;15.63;42.73
71504;BME280;59323;50.874;7.028;2023-05-03T08:48:36;102400.06;;;16.10;43.57
71504;BME280;59323;50.874;7.028;2023-05-03T08:51:03;102386.13;;;15.99;40.74
71504;BME280;59323;50.874;7.028;2023-05-03T08:53:28;102392.53;;;16.07;41.67
71504;BME280;59323;50.874;7.028;2023-05-03T08:55:54;102381.56;;;16.07;40.98
71504;BME280;59323;50.874;7.028;2023-05-03T08:58:20;102372.63;;;16.29;42.48
71504;BME280;59323;50.874;7.028;2023-05-03T09:00:45;102379.91;;;16.41;40.13
71504;BME280;59323;50.874;7.028;2023-05-03T09:03:10;102371.00;;;16.47;38.73
71504;BME280;59323;50.874;7.028;2023-05-03T09:05:36;102368.72;;;16.30;39.33
71504;BME280;59323;50.874;7.028;2023-05-03T09:08:09;102373.00;;;16.70;40.71
71504;BME280;59323;50.874;7.028;2023-05-03T09:10:40;102370.28;;;16.51;40.30
71504;BME280;59323;50.874;7.028;2023-05-03T09:13:07;102377.38;;;16.13;39.52
71504;BME280;59323;50.874;7.028;2023-05-03T09:15:33;102378.13;;;16.29;40.98
71504;BME280;59323;50.874;7.028;2023-05-03T09:18:28;102374.94;;;16.27;40.76
71504;BME280;59323;50.874;7.028;2023-05-03T09:20:54;102377.16;;;16.22;41.49
71504;BME280;59323;50.874;7.028;2023-05-03T09:25:53;102368.38;;;16.12;39.19
71504;BME280;59323;50.874;7.028;2023-05-03T09:28:19;102374.53;;;16.48;40.83
71504;BME280;59323;50.874;7.028;2023-05-03T09:30:48;102365.78;;;16.62;40.47
71504;BME280;59323;50.874;7.028;2023-05-03T09:33:14;102361.16;;;16.66;40.15
71504;BME280;59323;50.874;7.028;2023-05-03T09:35:59;102356.13;;;16.91;39.54
71504;BME280;59323;50.874;7.028;2023-05-03T09:38:29;102352.69;;;16.97;39.11
71504;BME280;59323;50.874;7.028;2023-05-03T09:40:55;102356.38;;;16.86;38.28
71504;BME280;59323;50.874;7.028;2023-05-03T09:43:20;102348.41;;;17.00;37.29
71504;BME280;59323;50.874;7.028;2023-05-03T09:45:46;102356.38;;;17.35;37.80
71504;BME280;59323;50.874;7.028;2023-05-03T09:48:19;102355.81;;;17.22;39.89
71504;BME280;59323;50.874;7.028;2023-05-03T09:50:47;102341.97;;;17.15;38.29
71504;BME280;59323;50.874;7.028;2023-05-03T09:53:23;102340.53;;;17.25;37.11
71504;BME280;59323;50.874;7.028;2023-05-03T09:55:49;102353.69;;;16.89;37.91
71504;BME280;59323;50.874;7.028;2023-05-03T09:58:17;102339.06;;;17.04;38.16
71504;BME280;59323;50.874;7.028;2023-05-03T10:00:43;102327.53;;;16.95;36.34
71504;BME280;59323;50.874;7.028;2023-05-03T10:03:17;102331.41;;;16.91;37.78
71504;BME280;59323;50.874;7.028;2023-05-03T10:05:48;102341.50;;;17.09;38.25
71504;BME280;59323;50.874;7.028;2023-05-03T10:08:34;102346.72;;;16.92;37.99
71504;BME280;59323;50.874;7.028;2023-05-03T10:11:07;102333.88;;;16.99;38.65
71504;BME280;59323;50.874;7.028;2023-05-03T10:13:32;102333.78;;;17.19;40.08
71504;BME280;59323;50.874;7.028;2023-05-03T10:16:05;102328.34;;;17.52;37.79
71504;BME280;59323;50.874;7.028;2023-05-03T10:18:31;102324.66;;;18.01;36.91
71504;BME280;59323;50.874;7.028;2023-05-03T10:21:08;102327.84;;;17.69;36.81
71504;BME280;59323;50.874;7.028;2023-05-03T10:24:11;102316.59;;;17.55;36.53
71504;BME280;59323;50.874;7.028;2023-05-03T10:26:49;102309.75;;;17.42;35.94
71504;BME280;59323;50.874;7.028;2023-05-03T10:31:55;102307.09;;;17.49;36.53
71504;BME280;59323;50.874;7.028;2023-05-03T10:34:29;102292.47;;;17.68;38.56
71504;BME280;59323;50.874;7.028;2023-05-03T10:36:56;102291.00;;;17.78;37.09
71504;BME280;59323;50.874;7.028;2023-05-03T10:39:26;102291.53;;;17.90;37.50
71504;BME280;59323;50.874;7.028;2023-05-03T10:42:02;102295.25;;;18.09;37.29
71504;BME280;59323;50.874;7.028;2023-05-03T10:44:39;102299.09;;;18.37;35.73
71504;BME280;59323;50.874;7.028;2023-05-03T10:47:21;102305.72;;;18.29;34.82
71504;BME280;59323;50.874;7.028;2023-05-03T10:52:47;102289.03;;;18.15;35.41
71504;BME280;59323;50.874;7.028;2023-05-03T10:55:18;102296.03;;;18.05;36.32
71504;BME280;59323;50.874;7.028;2023-05-03T10:57:53;102287.28;;;18.33;36.04
71504;BME280;59323;50.874;7.028;2023-05-03T11:00:37;102281.84;;;18.41;34.04
71504;BME280;59323;50.874;7.028;2023-05-03T11:03:17;102273.69;;;18.55;35.24
71504;BME280;59323;50.874;7.028;2023-05-03T11:05:50;102272.03;;;18.43;35.28
71504;BME280;59323;50.874;7.028;2023-05-03T11:08:23;102273.56;;;18.41;33.61
71504;BME280;59323;50.874;7.028;2023-05-03T11:10:56;102275.31;;;18.19;34.31
71504;BME280;59323;50.874;7.028;2023-05-03T11:13:22;102273.91;;;18.32;34.42
71504;BME280;59323;50.874;7.028;2023-05-03T11:15:48;102267.13;;;18.22;35.24
71504;BME280;59323;50.874;7.028;2023-05-03T11:18:14;102274.28;;;18.30;36.44
71504;BME280;59323;50.874;7.028;2023-05-03T11:20:40;102260.44;;;18.23;34.66
71504;BME280;59323;50.874;7.028;2023-05-03T11:23:05;102270.34;;;18.31;35.06
71504;BME280;59323;50.874;7.028;2023-05-03T11:25:34;102259.56;;;18.60;34.52
71504;BME280;59323;50.874;7.028;2023-05-03T11:28:00;102254.59;;;18.76;33.71
71504;BME280;59323;50.874;7.028;2023-05-03T11:30:33;102253.72;;;18.65;32.87
71504;BME280;59323;50.874;7.028;2023-05-03T11:33:02;102255.94;;;18.49;34.03
71504;BME280;59323;50.874;7.028;2023-05-03T11:35:28;102261.47;;;18.52;33.80
71504;BME280;59323;50.874;7.028;2023-05-03T11:37:55;102255.50;;;18.43;35.07
71504;BME280;59323;50.874;7.028;2023-05-03T11:40:21;102264.66;;;18.58;34.31
71504;BME280;59323;50.874;7.028;2023-05-03T11:42:57;102264.91;;;18.38;34.01
71504;BME280;59323;50.874;7.028;2023-05-03T11:45:25;102246.06;;;18.41;32.81
71504;BME280;59323;50.874;7.028;2023-05-03T11:47:51;102249.78;;;18.62;33.73
71504;BME280;59323;50.874;7.028;2023-05-03T11:50:18;102237.50;;;18.53;33.63
71504;BME280;59323;50.874;7.028;2023-05-03T11:52:50;102242.78;;;18.72;33.99
71504;BME280;59323;50.874;7.028;2023-05-03T11:55:16;102233.78;;;18.82;33.62
71504;BME280;59323;50.874;7.028;2023-05-03T11:57:46;102237.06;;;18.98;34.03
71504;BME280;59323;50.874;7.028;2023-05-03T12:00:13;102231.59;;;19.09;32.02
71504;BME280;59323;50.874;7.028;2023-05-03T12:02:42;102225.72;;;19.14;32.37
71504;BME280;59323;50.874;7.028;2023-05-03T12:05:08;102232.38;;;19.10;33.16
71504;BME280;59323;50.874;7.028;2023-05-03T12:07:35;102226.94;;;19.20;32.55
71504;BME280;59323;50.874;7.028;2023-05-03T12:10:11;102223.31;;;19.06;32.02
71504;BME280;59323;50.874;7.028;2023-05-03T12:12:37;102226.75;;;18.88;32.77
71504;BME280;59323;50.874;7.028;2023-05-03T12:15:03;102213.81;;;18.96;32.21
71504;BME280;59323;50.874;7.028;2023-05-03T12:17:37;102216.91;;;18.87;32.00
71504;BME280;59323;50.874;7.028;2023-05-03T12:20:24;102222.03;;;18.89;32.77
71504;BME280;59323;50.874;7.028;2023-05-03T12:22:51;102207.38;;;18.78;32.14
71504;BME280;59323;50.874;7.028;2023-05-03T12:25:17;102211.69;;;18.72;33.26
71504;BME280;59323;50.874;7.028;2023-05-03T12:27:43;102206.94;;;18.68;32.85
71504;BME280;59323;50.874;7.028;2023-05-03T12:30:09;102210.25;;;18.88;33.99
71504;BME280;59323;50.874;7.028;2023-05-03T12:32:36;102212.59;;;18.86;32.02
71504;BME280;59323;50.874;7.028;2023-05-03T12:35:06;102199.91;;;18.78;32.26
71504;BME280;59323;50.874;7.028;2023-05-03T12:37:35;102196.09;;;18.93;31.57
71504;BME280;59323;50.874;7.028;2023-05-03T12:40:04;102181.59;;;19.11;31.39
71504;BME280;59323;50.874;7.028;2023-05-03T12:42:30;102178.84;;;19.07;31.97
71504;BME280;59323;50.874;7.028;2023-05-03T12:44:58;102185.84;;;18.90;31.45
71504;BME280;59323;50.874;7.028;2023-05-03T12:47:24;102178.78;;;18.96;31.06
71504;BME280;59323;50.874;7.028;2023-05-03T12:49:58;102177.91;;;18.82;32.32
71504;BME280;59323;50.874;7.028;2023-05-03T12:52:23;102163.03;;;18.93;33.11
71504;BME280;59323;50.874;7.028;2023-05-03T12:54:49;102164.25;;;19.03;31.19
71504;BME280;59323;50.874;7.028;2023-05-03T12:57:15;102157.56;;;19.00;32.05
71504;BME280;59323;50.874;7.028;2023-05-03T12:59:40;102156.81;;;19.14;33.13
71504;BME280;59323;50.874;7.028;2023-05-03T13:02:08;102153.75;;;19.37;32.42
71504;BME280;59323;50.874;7.028;2023-05-03T13:04:33;102143.50;;;19.45;31.01
71504;BME280;59323;50.874;7.028;2023-05-03T13:06:59;102149.03;;;19.41;30.44
71504;BME280;59323;50.874;7.028;2023-05-03T13:09:25;102141.94;;;19.47;31.11
71504;BME280;59323;50.874;7.028;2023-05-03T13:11:50;102126.59;;;19.50;31.75
71504;BME280;59323;50.874;7.028;2023-05-03T13:14:17;102129.75;;;19.52;31.95
71504;BME280;59323;50.874;7.028;2023-05-03T13:16:42;102120.25;;;19.28;31.31
71504;BME280;59323;50.874;7.028;2023-05-03T13:19:12;102117.50;;;19.35;32.35